sensor_id;sensor_type;location;lat;lon;timestamp;pressure;altitude;pressure_sealevel;temperature;humidity
56414;BME280;42318;48.452;19.526;2023-02-26T00:04:51;96977.94;;;18.92;51.31
56414;BME280;42318;48.452;19.526;2023-02-26T00:12:22;96973.03;;;18.94;51.26
56414;BME280;42318;48.452;19.526;2023-02-26T00:19:55;96949.13;;;18.96;51.06
56414;BME280;42318;48.452;19.526;2023-02-26T00:27:26;96918.47;;;18.96;51.21
56414;BME280;42318;48.452;19.526;2023-02-26T00:34:57;96929.03;;;18.97;50.95
56414;BME280;42318;48.452;19.526;2023-02-26T00:42:28;96911.13;;;18.96;51.00
56414;BME280;42318;48.452;19.526;2023-02-26T00:50:21;96952.88;;;19.00;50.97
56414;BME280;42318;48.452;19.526;2023-02-26T00:57:52;96974.84;;;19.04;50.75
56414;BME280;42318;48.452;19.526;2023-02-26T01:05:23;96976.78;;;18.98;50.88
56414;BME280;42318;48.452;19.526;2023-02-26T01:12:55;96959.41;;;18.99;50.96
56414;BME280;42318;48.452;19.526;2023-02-26T01:20:51;96922.78;;;18.97;50.96
56414;BME280;42318;48.452;19.526;2023-02-26T01:28:20;96948.03;;;18.97;51.36
56414;BME280;42318;48.452;19.526;2023-02-26T01:36:05;96944.22;;;18.98;50.77
56414;BME280;42318;48.452;19.526;2023-02-26T01:43:56;96962.13;;;18.99;50.83
56414;BME280;42318;48.452;19.526;2023-02-26T01:51:48;96972.47;;;18.97;50.56
56414;BME280;42318;48.452;19.526;2023-02-26T01:59:20;96977.31;;;19.00;50.71
56414;BME280;42318;48.452;19.526;2023-02-26T02:06:54;96976.50;;;19.00;51.00
56414;BME280;42318;48.452;19.526;2023-02-26T02:30:11;96995.78;;;18.98;50.77
56414;BME280;42318;48.452;19.526;2023-02-26T02:37:48;97016.94;;;19.01;50.81
56414;BME280;42318;48.452;19.526;2023-02-26T02:45:37;96984.88;;;19.03;50.53
56414;BME280;42318;48.452;19.526;2023-02-26T02:53:17;96974.59;;;19.00;50.70
56414;BME280;42318;48.452;19.526;2023-02-26T03:00:51;96982.75;;;19.00;50.74
56414;BME280;42318;48.452;19.526;2023-02-26T03:08:27;97017.75;;;19.02;50.74
56414;BME280;42318;48.452;19.526;2023-02-26T03:23:49;97040.56;;;19.01;50.56
56414;BME280;42318;48.452;19.526;2023-02-26T03:31:35;97075.84;;;19.01;50.59
56414;BME280;42318;48.452;19.526;2023-02-26T03:46:51;97031.88;;;18.99;50.47
56414;BME280;42318;48.452;19.526;2023-02-26T03:54:27;97039.75;;;19.00;50.62
56414;BME280;42318;48.452;19.526;2023-02-26T04:09:36;97055.25;;;18.95;50.46
56414;BME280;42318;48.452;19.526;2023-02-26T04:17:06;97073.97;;;18.96;50.88
56414;BME280;42318;48.452;19.526;2023-02-26T04:24:37;97088.66;;;18.95;50.82
56414;BME280;42318;48.452;19.526;2023-02-26T04:32:08;97053.13;;;18.92;50.72
56414;BME280;42318;48.452;19.526;2023-02-26T04:39:39;97068.31;;;18.93;50.51
56414;BME280;42318;48.452;19.526;2023-02-26T04:47:09;97083.75;;;18.97;50.47
56414;BME280;42318;48.452;19.526;2023-02-26T04:54:40;97120.38;;;19.00;50.56
56414;BME280;42318;48.452;19.526;2023-02-26T05:02:11;97167.88;;;18.97;50.40
56414;BME280;42318;48.452;19.526;2023-02-26T05:09:42;97144.84;;;18.95;50.46
56414;BME280;42318;48.452;19.526;2023-02-26T05:17:13;97170.31;;;18.99;50.46
56414;BME280;42318;48.452;19.526;2023-02-26T05:24:44;97181.72;;;19.01;50.26
56414;BME280;42318;48.452;19.526;2023-02-26T05:32:15;97164.63;;;19.00;50.42
56414;BME280;42318;48.452;19.526;2023-02-26T05:39:46;97165.66;;;19.04;50.26
56414;BME280;42318;48.452;19.526;2023-02-26T05:47:17;97175.72;;;19.04;50.41
56414;BME280;42318;48.452;19.526;2023-02-26T05:54:47;97174.91;;;19.03;50.26
56414;BME280;42318;48.452;19.526;2023-02-26T06:02:18;97199.91;;;19.00;50.21
56414;BME280;42318;48.452;19.526;2023-02-26T06:09:49;97232.75;;;18.99;50.33
56414;BME280;42318;48.452;19.526;2023-02-26T06:17:20;97229.50;;;18.97;50.45
56414;BME280;42318;48.452;19.526;2023-02-26T06:24:50;97233.59;;;18.94;50.19
56414;BME280;42318;48.452;19.526;2023-02-26T06:32:21;97274.88;;;18.91;50.41
56414;BME280;42318;48.452;19.526;2023-02-26T06:39:52;97261.25;;;18.96;50.45
56414;BME280;42318;48.452;19.526;2023-02-26T06:47:23;97296.56;;;18.96;50.33
56414;BME280;42318;48.452;19.526;2023-02-26T06:54:55;97303.06;;;18.95;50.42
56414;BME280;42318;48.452;19.526;2023-02-26T07:02:26;97309.59;;;18.94;50.42
56414;BME280;42318;48.452;19.526;2023-02-26T07:09:57;97279.75;;;18.89;50.28
56414;BME280;42318;48.452;19.526;2023-02-26T07:17:27;97309.63;;;18.89;50.47
56414;BME280;42318;48.452;19.526;2023-02-26T07:24:58;97339.44;;;18.94;50.34
56414;BME280;42318;48.452;19.526;2023-02-26T07:32:29;97342.44;;;18.93;50.28
56414;BME280;42318;48.452;19.526;2023-02-26T07:40:00;97352.75;;;18.96;50.41
56414;BME280;42318;48.452;19.526;2023-02-26T07:47:31;97372.56;;;18.96;50.22
56414;BME280;42318;48.452;19.526;2023-02-26T07:55:02;97378.00;;;18.91;50.43
56414;BME280;42318;48.452;19.526;2023-02-26T08:02:33;97377.44;;;18.94;50.08
56414;BME280;42318;48.452;19.526;2023-02-26T08:10:04;97395.91;;;18.92;50.43
56414;BME280;42318;48.452;19.526;2023-02-26T08:17:35;97417.06;;;18.95;50.53
56414;BME280;42318;48.452;19.526;2023-02-26T08:25:06;97426.56;;;18.98;50.37
56414;BME280;42318;48.452;19.526;2023-02-26T08:32:37;97440.41;;;18.96;50.19
56414;BME280;42318;48.452;19.526;2023-02-26T08:40:10;97455.63;;;18.97;50.36
56414;BME280;42318;48.452;19.526;2023-02-26T08:47:41;97458.34;;;18.97;50.25
56414;BME280;42318;48.452;19.526;2023-02-26T08:55:12;97456.97;;;18.95;50.16
56414;BME280;42318;48.452;19.526;2023-02-26T09:02:43;97470.00;;;18.98;50.02
56414;BME280;42318;48.452;19.526;2023-02-26T09:10:15;97461.31;;;18.96;50.06
56414;BME280;42318;48.452;19.526;2023-02-26T09:17:46;97489.28;;;18.96;50.07
56414;BME280;42318;48.452;19.526;2023-02-26T09:25:17;97521.59;;;18.98;50.17
56414;BME280;42318;48.452;19.526;2023-02-26T09:32:48;97531.91;;;18.96;50.15
56414;BME280;42318;48.452;19.526;2023-02-26T09:40:28;97539.78;;;18.97;50.24
56414;BME280;42318;48.452;19.526;2023-02-26T09:48:04;97556.06;;;18.97;50.10
56414;BME280;42318;48.452;19.526;2023-02-26T09:55:41;97552.00;;;19.00;50.08
56414;BME280;42318;48.452;19.526;2023-02-26T10:03:23;97562.03;;;18.99;50.27
56414;BME280;42318;48.452;19.526;2023-02-26T10:11:04;97559.31;;;18.99;50.23
56414;BME280;42318;48.452;19.526;2023-02-26T10:18:42;97560.13;;;19.00;50.41
56414;BME280;42318;48.452;19.526;2023-02-26T10:26:21;97541.66;;;19.02;50.70
56414;BME280;42318;48.452;19.526;2023-02-26T10:41:50;97591.94;;;19.09;50.56
56414;BME280;42318;48.452;19.526;2023-02-26T10:56:58;97603.31;;;19.06;50.82
56414;BME280;42318;48.452;19.526;2023-02-26T11:04:29;97612.53;;;19.05;51.14
56414;BME280;42318;48.452;19.526;2023-02-26T11:12:15;97619.59;;;19.06;50.99
56414;BME280;42318;48.452;19.526;2023-02-26T11:20:30;97608.47;;;18.98;50.88
56414;BME280;42318;48.452;19.526;2023-02-26T11:28:04;97627.19;;;19.04;50.87
56414;BME280;42318;48.452;19.526;2023-02-26T11:35:35;97624.47;;;19.04;51.06
56414;BME280;42318;48.452;19.526;2023-02-26T11:43:10;97616.34;;;19.04;50.97
56414;BME280;42318;48.452;19.526;2023-02-26T11:50:46;97620.94;;;19.04;51.05
56414;BME280;42318;48.452;19.526;2023-02-26T11:58:21;97635.34;;;19.04;50.79
56414;BME280;42318;48.452;19.526;2023-02-26T12:05:52;97626.09;;;19.05;51.13
56414;BME280;42318;48.452;19.526;2023-02-26T12:13:52;97635.34;;;19.04;51.08
56414;BME280;42318;48.452;19.526;2023-02-26T12:45:06;97650.31;;;19.12;50.87
56414;BME280;42318;48.452;19.526;2023-02-26T13:00:30;97653.03;;;19.12;51.09
56414;BME280;42318;48.452;19.526;2023-02-26T13:24:04;97689.16;;;19.23;50.81
56414;BME280;42318;48.452;19.526;2023-02-26T13:31:43;97688.88;;;19.14;51.19
56414;BME280;42318;48.452;19.526;2023-02-26T13:48:06;97699.19;;;19.17;50.93
56414;BME280;42318;48.452;19.526;2023-02-26T13:55:41;97695.13;;;19.14;51.01
56414;BME280;42318;48.452;19.526;2023-02-26T14:10:52;97704.63;;;19.17;50.88
56414;BME280;42318;48.452;19.526;2023-02-26T14:18:29;97712.50;;;19.19;51.20
56414;BME280;42318;48.452;19.526;2023-02-26T14:26:04;97713.59;;;19.23;50.88
56414;BME280;42318;48.452;19.526;2023-02-26T14:41:35;97735.59;;;19.36;50.61
56414;BME280;42318;48.452;19.526;2023-02-26T14:49:20;97745.13;;;19.44;50.81
56414;BME280;42318;48.452;19.526;2023-02-26T14:57:07;97748.66;;;19.44;51.21
56414;BME280;42318;48.452;19.526;2023-02-26T15:05:14;97761.97;;;19.46;51.81
56414;BME280;42318;48.452;19.526;2023-02-26T15:21:17;97770.66;;;19.48;52.68
56414;BME280;42318;48.452;19.526;2023-02-26T15:28:46;97784.25;;;19.48;53.35
56414;BME280;42318;48.452;19.526;2023-02-26T15:36:18;97796.00;;;19.54;53.24
56414;BME280;42318;48.452;19.526;2023-02-26T15:43:55;97806.28;;;19.52;53.69
56414;BME280;42318;48.452;19.526;2023-02-26T15:51:27;97816.66;;;19.55;54.27
56414;BME280;42318;48.452;19.526;2023-02-26T15:59:00;97821.28;;;19.54;54.01
56414;BME280;42318;48.452;19.526;2023-02-26T16:06:39;97829.97;;;19.56;53.82
56414;BME280;42318;48.452;19.526;2023-02-26T16:14:19;97854.97;;;19.53;53.45
56414;BME280;42318;48.452;19.526;2023-02-26T16:21:53;97865.56;;;19.55;53.52
56414;BME280;42318;48.452;19.526;2023-02-26T16:29:27;97867.38;;;19.49;53.37
56414;BME280;42318;48.452;19.526;2023-02-26T16:37:52;97879.41;;;19.53;53.07
56414;BME280;42318;48.452;19.526;2023-02-26T16:53:10;97908.22;;;19.54;52.66
56414;BME280;42318;48.452;19.526;2023-02-26T17:00:44;97924.53;;;19.54;52.53
56414;BME280;42318;48.452;19.526;2023-02-26T17:08:19;97929.97;;;19.54;52.31
56414;BME280;42318;48.452;19.526;2023-02-26T17:15:50;97949.28;;;19.58;51.97
56414;BME280;42318;48.452;19.526;2023-02-26T17:23:21;97963.69;;;19.63;51.77
56414;BME280;42318;48.452;19.526;2023-02-26T17:30:56;97965.91;;;19.76;51.42
56414;BME280;42318;48.452;19.526;2023-02-26T17:38:27;97969.72;;;19.75;52.21
56414;BME280;42318;48.452;19.526;2023-02-26T17:45:58;97965.59;;;19.63;52.59
56414;BME280;42318;48.452;19.526;2023-02-26T17:53:29;97974.88;;;19.77;52.25
56414;BME280;42318;48.452;19.526;2023-02-26T18:01:04;97982.53;;;19.85;52.33
56414;BME280;42318;48.452;19.526;2023-02-26T18:08:35;97991.78;;;19.89;51.82
56414;BME280;42318;48.452;19.526;2023-02-26T18:16:14;97996.13;;;19.85;52.01
56414;BME280;42318;48.452;19.526;2023-02-26T18:23:46;97980.69;;;19.96;51.69
56414;BME280;42318;48.452;19.526;2023-02-26T18:31:17;97979.28;;;19.88;51.79
56414;BME280;42318;48.452;19.526;2023-02-26T18:38:48;97986.31;;;19.79;52.32
56414;BME280;42318;48.452;19.526;2023-02-26T18:46:19;97988.22;;;19.84;51.77
56414;BME280;42318;48.452;19.526;2023-02-26T18:53:50;97999.06;;;19.73;52.00
56414;BME280;42318;48.452;19.526;2023-02-26T19:01:21;97995.78;;;19.71;52.01
56414;BME280;42318;48.452;19.526;2023-02-26T19:08:52;98001.75;;;19.63;53.12
56414;BME280;42318;48.452;19.526;2023-02-26T19:16:22;98016.47;;;19.77;53.89
56414;BME280;42318;48.452;19.526;2023-02-26T19:23:53;98025.19;;;19.85;53.66
56414;BME280;42318;48.452;19.526;2023-02-26T19:31:25;98031.41;;;19.75;54.22
56414;BME280;42318;48.452;19.526;2023-02-26T19:38:55;98041.53;;;19.90;54.11
56414;BME280;42318;48.452;19.526;2023-02-26T19:46:26;98057.03;;;19.89;53.58
56414;BME280;42318;48.452;19.526;2023-02-26T19:53:57;98059.97;;;19.77;53.67
56414;BME280;42318;48.452;19.526;2023-02-26T20:01:28;98070.34;;;19.91;53.62
56414;BME280;42318;48.452;19.526;2023-02-26T20:08:59;98078.47;;;19.81;53.41
56414;BME280;42318;48.452;19.526;2023-02-26T20:16:29;98071.41;;;19.80;53.36
56414;BME280;42318;48.452;19.526;2023-02-26T20:24:00;98082.28;;;19.80;53.58
56414;BME280;42318;48.452;19.526;2023-02-26T20:31:31;98069.16;;;19.66;53.53
56414;BME280;42318;48.452;19.526;2023-02-26T20:39:02;98082.44;;;19.58;53.33
56414;BME280;42318;48.452;19.526;2023-02-26T20:46:33;98086.09;;;19.46;53.56
56414;BME280;42318;48.452;19.526;2023-02-26T20:54:05;98105.38;;;19.45;54.00
56414;BME280;42318;48.452;19.526;2023-02-26T21:01:36;98110.13;;;19.55;53.43
56414;BME280;42318;48.452;19.526;2023-02-26T21:09:08;98111.53;;;19.62;53.40
56414;BME280;42318;48.452;19.526;2023-02-26T21:16:40;98118.09;;;19.66;53.41
56414;BME280;42318;48.452;19.526;2023-02-26T21:24:11;98137.34;;;19.60;53.28
56414;BME280;42318;48.452;19.526;2023-02-26T21:31:42;98138.53;;;19.79;52.78
56414;BME280;42318;48.452;19.526;2023-02-26T21:39:13;98136.25;;;19.61;53.11
56414;BME280;42318;48.452;19.526;2023-02-26T21:46:43;98150.97;;;19.65;52.62
56414;BME280;42318;48.452;19.526;2023-02-26T21:54:15;98163.28;;;19.77;52.32
56414;BME280;42318;48.452;19.526;2023-02-26T22:01:46;98172.53;;;19.82;52.59
56414;BME280;42318;48.452;19.526;2023-02-26T22:09:17;98177.44;;;19.85;52.27
56414;BME280;42318;48.452;19.526;2023-02-26T22:16:51;98191.63;;;19.92;52.17
56414;BME280;42318;48.452;19.526;2023-02-26T22:24:22;98203.31;;;19.92;52.08
56414;BME280;42318;48.452;19.526;2023-02-26T22:31:53;98220.94;;;19.85;52.04
56414;BME280;42318;48.452;19.526;2023-02-26T22:39:26;98216.81;;;19.77;52.15
56414;BME280;42318;48.452;19.526;2023-02-26T22:46:56;98220.09;;;19.79;51.42
56414;BME280;42318;48.452;19.526;2023-02-26T22:54:27;98216.97;;;19.60;51.67
56414;BME280;42318;48.452;19.526;2023-02-26T23:01:58;98222.84;;;19.52;51.92
56414;BME280;42318;48.452;19.526;2023-02-26T23:09:29;98217.88;;;19.44;51.91
56414;BME280;42318;48.452;19.526;2023-02-26T23:16:59;98224.34;;;19.38;51.86
56414;BME280;42318;48.452;19.526;2023-02-26T23:24:30;98222.41;;;19.33;51.80
56414;BME280;42318;48.452;19.526;2023-02-26T23:32:02;98231.31;;;19.29;51.76
56414;BME280;42318;48.452;19.526;2023-02-26T23:39:32;98216.06;;;19.23;51.98
56414;BME280;42318;48.452;19.526;2023-02-26T23:47:03;98222.56;;;19.22;51.58
56414;BME280;42318;48.452;19.526;2023-02-26T23:54:34;98229.06;;;19.21;51.52
